Time;durP1;ratioP1;P1;durP2;ratioP2;P2;SDS_P1;SDS_P2;PMS_P1;PMS_P2;Temp;Humidity;BMP_temperature;BMP_pressure;BME280_temperature;BME280_humidity;BME280_pressure;Samples;Min_cycle;Max_cycle;Signal;HPM_P1;HPM_P2
2021/07/02 00:00:27;;;;;;;;;;;;;;;;;;5073581;28;20359;-65
2021/07/02 00:02:56;;;;;;;;;;;;;;;;;;5073170;28;20355;-65
2021/07/02 00:05:23;;;;;;;;;;;;;;;;;;5069074;28;19924;-65
2021/07/02 00:07:50;;;;;;;;;;;;;;;;;;5065699;28;19924;-65
2021/07/02 00:10:16;;;;;;;;;;;;;;;;;;5069845;28;20311;-65
2021/07/02 00:12:43;;;;;;;;;;;;;;;;;;5070365;28;19996;-65
2021/07/02 00:15:10;;;;;;;;;;;;;;;;;;5071342;28;19932;-65
2021/07/02 00:17:37;;;;;;;;;;;;;;;;;;5068872;28;19925;-65
2021/07/02 00:20:04;;;;;;;;;;;;;;;;;;5071236;28;20299;-65
2021/07/02 00:22:33;;;;;;;;;;;;;;;;;;5070336;28;19928;-65
2021/07/02 00:25:00;;;;;;;;;;;;;;;;;;5070790;28;20316;-65
2021/07/02 00:27:26;;;;;;;;;;;;;;;;;;5070126;28;19925;-65
2021/07/02 00:29:53;;;;;;;;;;;;;;;;;;5069936;28;19931;-65
2021/07/02 00:32:20;;;;;;;;;;;;;;;;;;5063189;28;19931;-65
2021/07/02 00:34:47;;;;;;;;;;;;;;;;;;5070928;28;20014;-66
2021/07/02 00:37:14;;;;;;;;;;;;;;;;;;5070394;28;19924;-65
2021/07/02 00:39:41;;;;;;;;;;;;;;;;;;5070785;28;20020;-65
2021/07/02 00:42:08;;;;;;;;;;;;;;;;;;5069534;28;20396;-65
2021/07/02 00:44:35;;;;;;;;;;;;;;;;;;5069900;28;19925;-65
2021/07/02 00:47:02;;;;;;;;;;;;;;;;;;5070224;28;19924;-65
2021/07/02 00:49:29;;;;;;;;;;;;;;;;;;5069225;28;19931;-65
2021/07/02 00:51:56;;;;;;;;;;;;;;;;;;5069983;28;20277;-65
2021/07/02 00:54:23;;;;;;;;;;;;;;;;;;5070049;28;19924;-66
2021/07/02 00:56:50;;;;;;;;;;;;;;;;;;5070021;28;19924;-65
2021/07/02 00:59:17;;;;;;;;;;;;;;;;;;5070132;28;19924;-64
2021/07/02 01:01:44;;;;;;;;;;;;;;;;;;5070449;28;20110;-65
2021/07/02 01:04:11;;;;;;;;;;;;;;;;;;5069419;28;19932;-65
2021/07/02 01:06:37;;;;;;;;;;;;;;;;;;5069934;28;19947;-65
2021/07/02 01:09:05;;;;;;;;;;;;;;;;;;5069722;28;20291;-66
2021/07/02 01:11:32;;;;;;;;;;;;;;;;;;5069596;28;20334;-65
2021/07/02 01:13:59;;;;;;;;;;;;;;;;;;5069197;28;19943;-65
2021/07/02 01:16:26;;;;;;;;;;;;;;;;;;5068265;28;19934;-65
2021/07/02 01:18:53;;;;;;;;;;;;;;;;;;5069753;28;19932;-65
2021/07/02 01:21:20;;;;;;;;;;;;;;;;;;5069335;28;19924;-64
2021/07/02 01:23:47;;;;;;;;;;;;;;;;;;5068925;28;19925;-65
2021/07/02 01:26:14;;;;;;;;;;;;;;;;;;5068564;28;20299;-64
2021/07/02 01:28:41;;;;;;;;;;;;;;;;;;5069985;28;20432;-66
2021/07/02 01:31:08;;;;;;;;;;;;;;;;;;5069345;28;19931;-65
2021/07/02 01:33:34;;;;;;;;;;;;;;;;;;5069348;28;19925;-65
2021/07/02 01:36:01;;;;;;;;;;;;;;;;;;5069374;28;19928;-67
2021/07/02 01:38:28;;;;;;;;;;;;;;;;;;5069730;28;20018;-65
2021/07/02 01:40:55;;;;;;;;;;;;;;;;;;5069187;28;19924;-65
2021/07/02 01:43:24;;;;;;;;;;;;;;;;;;5069236;28;20418;-65
2021/07/02 01:45:51;;;;;;;;;;;;;;;;;;5069777;28;19979;-64
2021/07/02 01:48:18;;;;;;;;;;;;;;;;;;5068193;28;19948;-65
2021/07/02 01:50:45;;;;;;;;;;;;;;;;;;5069797;28;19932;-66
2021/07/02 01:53:12;;;;;;;;;;;;;;;;;;5068843;28;20035;-65
2021/07/02 01:55:39;;;;;;;;;;;;;;;;;;5069999;28;19925;-64
2021/07/02 01:58:06;;;;;;;;;;;;;;;;;;5071300;28;19924;-65
2021/07/02 02:00:33;;;;;;;;;;;;;;;;;;5069702;28;19928;-65
2021/07/02 02:03:00;;;;;;;;;;;;;;;;;;5070993;28;20399;-65
2021/07/02 02:05:27;;;;;;;;;;;;;;;;;;5069456;28;19924;-66
2021/07/02 02:07:54;;;;;;;;;;;;;;;;;;5066595;28;20316;-65
2021/07/02 02:10:21;;;;;;;;;;;;;;;;;;5069468;28;20443;-65
2021/07/02 02:12:47;;;;;;;;;;;;;;;;;;5068774;28;19924;-65
2021/07/02 02:15:14;;;;;;;;;;;;;;;;;;5069169;28;19925;-63
2021/07/02 02:17:42;;;;;;;;;;;;;;;;;;5069609;28;19928;-64
2021/07/02 02:20:09;;;;;;;;;;;;;;;;;;5068653;28;20303;-64
2021/07/02 02:22:36;;;;;;;;;;;;;;;;;;5068137;28;19940;-64
2021/07/02 02:25:03;;;;;;;;;;;;;;;;;;5071311;28;19931;-64
2021/07/02 02:27:30;;;;;;;;;;;;;;;;;;5073216;28;19925;-64
2021/07/02 02:29:57;;;;;;;;;;;;;;;;;;5073344;28;19925;-67
2021/07/02 02:32:24;;;;;;;;;;;;;;;;;;5072947;28;19925;-65
2021/07/02 02:34:50;;;;;;;;;;;;;;;;;;5072857;28;19947;-65
2021/07/02 02:37:17;;;;;;;;;;;;;;;;;;5072499;28;20014;-65
2021/07/02 02:39:44;;;;;;;;;;;;;;;;;;5072689;28;20299;-65
2021/07/02 02:42:11;;;;;;;;;;;;;;;;;;5072763;28;19928;-65
2021/07/02 02:44:38;;;;;;;;;;;;;;;;;;5071887;28;19925;-65
2021/07/02 02:47:05;;;;;;;;;;;;;;;;;;5072139;28;19931;-65
2021/07/02 02:49:32;;;;;;;;;;;;;;;;;;5072415;28;19931;-66
2021/07/02 02:51:59;;;;;;;;;;;;;;;;;;5071417;28;19924;-64
2021/07/02 02:54:26;;;;;;;;;;;;;;;;;;5068164;28;19924;-64
2021/07/02 02:57:06;;;;;;;;;;;;;;;;;;5072576;28;20392;-65
2021/07/02 02:59:33;;;;;;;;;;;;;;;;;;5067908;28;19978;-64
2021/07/02 03:02:00;;;;;;;;;;;;;;;;;;5072849;28;19924;-64
2021/07/02 03:04:27;;;;;;;;;;;;;;;;;;5071540;28;20272;-65
2021/07/02 03:06:54;;;;;;;;;;;;;;;;;;5072784;28;19933;-65
2021/07/02 03:09:21;;;;;;;;;;;;;;;;;;5070555;28;19932;-62
2021/07/02 03:11:51;;;;;;;;;;;;;;;;;;5072099;28;20434;-63
2021/07/02 03:14:18;;;;;;;;;;;;;;;;;;5071795;28;19932;-65
2021/07/02 03:16:45;;;;;;;;;;;;;;;;;;5071413;28;19924;-64
2021/07/02 03:19:11;;;;;;;;;;;;;;;;;;5071301;28;19936;-65
2021/07/02 03:21:38;;;;;;;;;;;;;;;;;;5072616;28;19924;-65
2021/07/02 03:24:05;;;;;;;;;;;;;;;;;;5071387;28;20368;-63
2021/07/02 03:26:32;;;;;;;;;;;;;;;;;;5071648;28;19928;-65
2021/07/02 03:28:59;;;;;;;;;;;;;;;;;;5071023;28;19931;-66
2021/07/02 03:31:26;;;;;;;;;;;;;;;;;;5068685;28;19924;-65
2021/07/02 03:33:53;;;;;;;;;;;;;;;;;;5071803;28;20402;-63
2021/07/02 03:36:20;;;;;;;;;;;;;;;;;;5070679;28;19938;-64
2021/07/02 03:38:47;;;;;;;;;;;;;;;;;;5071757;28;19924;-65
2021/07/02 03:41:14;;;;;;;;;;;;;;;;;;5071072;28;19992;-65
2021/07/02 03:43:41;;;;;;;;;;;;;;;;;;5071454;28;19951;-66
2021/07/02 03:46:08;;;;;;;;;;;;;;;;;;5071846;28;19924;-66
2021/07/02 03:48:35;;;;;;;;;;;;;;;;;;5070439;28;19924;-63
2021/07/02 03:51:01;;;;;;;;;;;;;;;;;;5071959;28;19928;-65
2021/07/02 03:53:29;;;;;;;;;;;;;;;;;;5070749;28;19931;-63
2021/07/02 03:55:56;;;;;;;;;;;;;;;;;;5063715;28;19929;-65
2021/07/02 03:58:23;;;;;;;;;;;;;;;;;;5071459;28;20335;-64
2021/07/02 04:00:50;;;;;;;;;;;;;;;;;;5070522;28;19924;-65
2021/07/02 04:03:17;;;;;;;;;;;;;;;;;;5070984;28;20378;-63
2021/07/02 04:05:45;;;;;;;;;;;;;;;;;;5070439;28;19932;-64
2021/07/02 04:08:12;;;;;;;;;;;;;;;;;;5070206;28;20406;-66
2021/07/02 04:10:39;;;;;;;;;;;;;;;;;;5070199;28;20292;-64
2021/07/02 04:13:07;;;;;;;;;;;;;;;;;;5067206;28;19947;-65
2021/07/02 04:15:33;;;;;;;;;;;;;;;;;;5070085;28;19931;-65
2021/07/02 04:18:00;;;;;;;;;;;;;;;;;;5064277;28;19931;-65
2021/07/02 04:20:27;;;;;;;;;;;;;;;;;;5070358;28;19925;-64
2021/07/02 04:22:54;;;;;;;;;;;;;;;;;;5069006;28;19925;-64
2021/07/02 04:25:21;;;;;;;;;;;;;;;;;;5070939;28;19928;-64
2021/07/02 04:27:52;;;;;;;;;;;;;;;;;;5070453;28;19931;-64
2021/07/02 04:30:19;;;;;;;;;;;;;;;;;;5070105;28;19936;-66
2021/07/02 04:32:45;;;;;;;;;;;;;;;;;;5070722;28;20016;-64
2021/07/02 04:35:13;;;;;;;;;;;;;;;;;;5069472;28;19924;-65
2021/07/02 04:37:40;;;;;;;;;;;;;;;;;;5070318;28;20003;-65
2021/07/02 04:40:09;;;;;;;;;;;;;;;;;;5070613;28;19924;-65
2021/07/02 04:42:36;;;;;;;;;;;;;;;;;;5069405;28;19938;-66
2021/07/02 04:45:03;;;;;;;;;;;;;;;;;;5070433;28;19931;-65
2021/07/02 04:47:33;;;;;;;;;;;;;;;;;;5068939;28;19924;-65
2021/07/02 04:50:00;;;;;;;;;;;;;;;;;;5070722;28;19924;-65
2021/07/02 04:52:27;;;;;;;;;;;;;;;;;;5070297;28;20007;-66
2021/07/02 04:54:56;;;;;;;;;;;;;;;;;;5070416;28;19924;-66
2021/07/02 04:57:23;;;;;;;;;;;;;;;;;;5071111;28;19986;-66
2021/07/02 04:59:51;;;;;;;;;;;;;;;;;;5069466;28;19925;-63
2021/07/02 05:02:18;;;;;;;;;;;;;;;;;;5070520;28;19932;-66
2021/07/02 05:04:45;;;;;;;;;;;;;;;;;;5070622;28;20314;-66
2021/07/02 05:07:12;;;;;;;;;;;;;;;;;;5070078;28;19924;-66
2021/07/02 05:09:39;;;;;;;;;;;;;;;;;;5069582;28;19925;-65
2021/07/02 05:12:06;;;;;;;;;;;;;;;;;;5069656;28;20022;-66
2021/07/02 05:14:33;;;;;;;;;;;;;;;;;;5068903;28;20190;-65
2021/07/02 05:17:04;;;;;;;;;;;;;;;;;;5069418;28;19932;-66
2021/07/02 05:19:31;;;;;;;;;;;;;;;;;;5065599;28;19924;-66
2021/07/02 05:21:58;;;;;;;;;;;;;;;;;;5069843;28;19925;-67
2021/07/02 05:24:25;;;;;;;;;;;;;;;;;;5067171;28;19925;-64
2021/07/02 05:26:52;;;;;;;;;;;;;;;;;;5068501;28;19931;-66
2021/07/02 05:29:19;;;;;;;;;;;;;;;;;;5069236;28;19924;-67
2021/07/02 05:31:46;;;;;;;;;;;;;;;;;;5065905;28;19976;-64
2021/07/02 05:34:13;;;;;;;;;;;;;;;;;;5067952;28;19932;-66
2021/07/02 05:36:40;;;;;;;;;;;;;;;;;;5069948;28;20376;-65
2021/07/02 05:39:07;;;;;;;;;;;;;;;;;;5068324;28;19930;-66
2021/07/02 05:41:34;;;;;;;;;;;;;;;;;;5069907;28;19925;-66
2021/07/02 05:44:01;;;;;;;;;;;;;;;;;;5070534;28;20372;-66
2021/07/02 05:46:29;;;;;;;;;;;;;;;;;;5068680;28;19924;-66
2021/07/02 05:48:56;;;;;;;;;;;;;;;;;;5069203;28;19970;-66
2021/07/02 05:51:23;;;;;;;;;;;;;;;;;;5069131;28;20411;-66
2021/07/02 05:53:50;;;;;;;;;;;;;;;;;;5069516;28;19931;-63
2021/07/02 05:56:17;;;;;;;;;;;;;;;;;;5069761;28;20384;-65
2021/07/02 05:58:44;;;;;;;;;;;;;;;;;;5069606;28;20259;-66
2021/07/02 06:01:11;;;;;;;;;;;;;;;;;;5073156;28;19925;-65
2021/07/02 06:03:38;;;;;;;;;;;;;;;;;;5073173;28;19925;-64
2021/07/02 06:06:05;;;;;;;;;;;;;;;;;;5073153;28;19943;-65
2021/07/02 06:08:32;;;;;;;;;;;;;;;;;;5072885;28;20419;-64
2021/07/02 06:11:00;;;;;;;;;;;;;;;;;;5071478;28;19924;-65
2021/07/02 06:13:27;;;;;;;;;;;;;;;;;;5073697;28;19925;-64
2021/07/02 06:15:54;;;;;;;;;;;;;;;;;;5070280;28;19974;-64
2021/07/02 06:18:21;;;;;;;;;;;;;;;;;;5072237;28;19924;-65
2021/07/02 06:20:52;;;;;;;;;;;;;;;;;;5072265;28;19924;-63
2021/07/02 06:23:19;;;;;;;;;;;;;;;;;;5066265;28;20018;-65
2021/07/02 06:25:46;;;;;;;;;;;;;;;;;;5070881;28;19975;-66
2021/07/02 06:28:13;;;;;;;;;;;;;;;;;;5072471;28;19944;-64
2021/07/02 06:30:40;;;;;;;;;;;;;;;;;;5072381;28;19925;-64
2021/07/02 06:33:07;;;;;;;;;;;;;;;;;;5073302;28;19944;-64
2021/07/02 06:35:34;;;;;;;;;;;;;;;;;;5073297;28;20376;-66
2021/07/02 06:38:01;;;;;;;;;;;;;;;;;;5071524;28;19974;-65
2021/07/02 06:40:28;;;;;;;;;;;;;;;;;;5072175;28;19931;-65
2021/07/02 06:42:55;;;;;;;;;;;;;;;;;;5072466;28;19930;-69
2021/07/02 06:45:22;;;;;;;;;;;;;;;;;;5072873;28;19924;-66
2021/07/02 06:47:49;;;;;;;;;;;;;;;;;;5072153;28;19932;-66
2021/07/02 06:50:16;;;;;;;;;;;;;;;;;;5072108;28;19924;-65
2021/07/02 06:52:43;;;;;;;;;;;;;;;;;;5072299;28;19933;-65
2021/07/02 06:55:10;;;;;;;;;;;;;;;;;;5071954;28;20023;-66
2021/07/02 06:57:36;;;;;;;;;;;;;;;;;;5072245;28;19924;-66
2021/07/02 07:00:03;;;;;;;;;;;;;;;;;;5071357;28;20284;-69
2021/07/02 07:02:30;;;;;;;;;;;;;;;;;;5073087;28;19924;-66
2021/07/02 07:04:57;;;;;;;;;;;;;;;;;;5070459;28;19924;-67
2021/07/02 07:07:24;;;;;;;;;;;;;;;;;;5072518;28;19929;-67
2021/07/02 07:09:51;;;;;;;;;;;;;;;;;;5070995;28;19932;-66
2021/07/02 07:12:18;;;;;;;;;;;;;;;;;;5071056;28;19971;-66
2021/07/02 07:14:47;;;;;;;;;;;;;;;;;;5072211;28;20019;-66
2021/07/02 07:17:14;;;;;;;;;;;;;;;;;;5066555;28;19990;-65
2021/07/02 07:19:41;;;;;;;;;;;;;;;;;;5066621;28;20334;-67
2021/07/02 07:22:08;;;;;;;;;;;;;;;;;;5068934;28;20128;-67
2021/07/02 07:24:35;;;;;;;;;;;;;;;;;;5069489;28;19940;-66
2021/07/02 07:27:02;;;;;;;;;;;;;;;;;;5068473;28;19934;-67
2021/07/02 07:29:29;;;;;;;;;;;;;;;;;;5069627;28;19925;-66
2021/07/02 07:31:56;;;;;;;;;;;;;;;;;;5075805;28;19931;-66
2021/07/02 07:34:30;;;;;;;;;;;;;;;;;;5072898;28;20443;-66
2021/07/02 07:37:01;;;;;;;;;;;;;;;;;;5073529;28;19931;-66
2021/07/02 07:39:28;;;;;;;;;;;;;;;;;;5073256;28;20300;-70
2021/07/02 07:41:55;;;;;;;;;;;;;;;;;;5072090;28;20320;-64
2021/07/02 07:44:22;;;;;;;;;;;;;;;;;;5072147;28;19925;-66
2021/07/02 07:46:49;;;;;;;;;;;;;;;;;;5071512;28;19925;-66
2021/07/02 07:49:15;;;;;;;;;;;;;;;;;;5070049;28;19930;-65
2021/07/02 07:51:47;;;;;;;;;;;;;;;;;;5071949;28;20023;-66
2021/07/02 07:54:14;;;;;;;;;;;;;;;;;;5072312;28;19928;-66
2021/07/02 07:56:50;;;;;;;;;;;;;;;;;;5072806;28;19931;-66
2021/07/02 07:59:16;;;;;;;;;;;;;;;;;;5071963;28;19925;-66
2021/07/02 08:01:44;;;;;;;;;;;;;;;;;;5072651;28;19924;-67
2021/07/02 08:04:13;;;;;;;;;;;;;;;;;;5072805;28;19931;-66
2021/07/02 08:06:40;;;;;;;;;;;;;;;;;;5072264;28;19971;-66
2021/07/02 08:09:07;;;;;;;;;;;;;;;;;;5065446;28;20195;-66
2021/07/02 08:11:34;;;;;;;;;;;;;;;;;;5071796;28;20115;-66
2021/07/02 08:14:01;;;;;;;;;;;;;;;;;;5071764;28;19932;-66
2021/07/02 08:16:28;;;;;;;;;;;;;;;;;;5072318;28;19924;-66
2021/07/02 08:18:55;;;;;;;;;;;;;;;;;;5071931;28;20018;-64
2021/07/02 08:21:22;;;;;;;;;;;;;;;;;;5070928;28;20341;-65
2021/07/02 08:23:49;;;;;;;;;;;;;;;;;;5072533;28;19924;-66
2021/07/02 08:26:17;;;;;;;;;;;;;;;;;;5071881;28;20396;-64
2021/07/02 08:31:29;;;;;;;;;;;;;;;;;;5071587;28;19923;-66
2021/07/02 08:33:56;;;;;;;;;;;;;;;;;;5071908;28;19924;-66
2021/07/02 08:36:23;;;;;;;;;;;;;;;;;;5071551;28;19924;-66
2021/07/02 08:38:50;;;;;;;;;;;;;;;;;;5072048;28;19931;-64
2021/07/02 08:41:17;;;;;;;;;;;;;;;;;;5071700;28;19930;-65
2021/07/02 08:43:45;;;;;;;;;;;;;;;;;;5072075;28;19929;-66
2021/07/02 08:46:12;;;;;;;;;;;;;;;;;;5071571;28;19932;-64
2021/07/02 08:48:39;;;;;;;;;;;;;;;;;;5071781;28;19924;-66
2021/07/02 08:51:06;;;;;;;;;;;;;;;;;;5071827;28;19928;-65
2021/07/02 08:53:33;;;;;;;;;;;;;;;;;;5071930;28;19989;-66
2021/07/02 08:56:01;;;;;;;;;;;;;;;;;;5071542;28;19932;-66
2021/07/02 08:58:32;;;;;;;;;;;;;;;;;;5069231;28;19924;-65
2021/07/02 09:00:59;;;;;;;;;;;;;;;;;;5071138;28;19986;-65
2021/07/02 09:03:26;;;;;;;;;;;;;;;;;;5071940;28;19925;-66
2021/07/02 09:05:53;;;;;;;;;;;;;;;;;;5071112;28;19924;-64
2021/07/02 09:08:20;;;;;;;;;;;;;;;;;;5070763;28;20012;-65
2021/07/02 09:10:48;;;;;;;;;;;;;;;;;;5070961;28;20019;-64
2021/07/02 09:13:15;;;;;;;;;;;;;;;;;;5071676;28;19928;-67
2021/07/02 09:15:42;;;;;;;;;;;;;;;;;;5071264;28;20427;-64
2021/07/02 09:18:09;;;;;;;;;;;;;;;;;;5071434;28;19929;-63
2021/07/02 09:20:36;;;;;;;;;;;;;;;;;;5070367;28;20277;-63
2021/07/02 09:23:03;;;;;;;;;;;;;;;;;;5071242;28;19924;-64
2021/07/02 09:25:30;;;;;;;;;;;;;;;;;;5070715;28;20277;-65
2021/07/02 09:27:57;;;;;;;;;;;;;;;;;;5071589;28;19947;-65
2021/07/02 09:30:24;;;;;;;;;;;;;;;;;;5071394;28;19928;-65
2021/07/02 09:32:51;;;;;;;;;;;;;;;;;;5071246;28;19925;-66
2021/07/02 09:35:19;;;;;;;;;;;;;;;;;;5089403;22;19932;-63
2021/07/02 09:37:48;;;;;;;;;;;;;;;;;;5075942;28;19924;-64
2021/07/02 09:40:15;;;;;;;;;;;;;;;;;;5075235;28;19932;-62
2021/07/02 09:42:42;;;;;;;;;;;;;;;;;;5075770;28;20306;-62
2021/07/02 09:45:09;;;;;;;;;;;;;;;;;;5073333;28;19947;-64
2021/07/02 09:47:36;;;;;;;;;;;;;;;;;;5055708;28;19924;-65
2021/07/02 09:50:03;;;;;;;;;;;;;;;;;;5073849;28;19924;-64
2021/07/02 09:52:30;;;;;;;;;;;;;;;;;;5075814;28;19935;-66
2021/07/02 09:54:57;;;;;;;;;;;;;;;;;;5074034;28;19925;-65
2021/07/02 09:57:24;;;;;;;;;;;;;;;;;;5054987;28;19924;-64
2021/07/02 09:59:51;;;;;;;;;;;;;;;;;;5055180;28;20281;-63
2021/07/02 10:02:18;;;;;;;;;;;;;;;;;;5055035;28;19960;-63
2021/07/02 10:04:45;;;;;;;;;;;;;;;;;;5063043;28;19924;-64
2021/07/02 10:07:12;;;;;;;;;;;;;;;;;;5059880;28;19946;-64
2021/07/02 10:09:39;;;;;;;;;;;;;;;;;;5069859;28;19924;-64
2021/07/02 10:12:06;;;;;;;;;;;;;;;;;;5069766;28;19925;-63
2021/07/02 10:14:33;;;;;;;;;;;;;;;;;;5070717;28;21422;-63
2021/07/02 10:17:00;;;;;;;;;;;;;;;;;;5071046;28;20320;-63
2021/07/02 10:19:27;;;;;;;;;;;;;;;;;;5070171;28;20240;-64
2021/07/02 10:21:54;;;;;;;;;;;;;;;;;;5071513;28;19924;-63
2021/07/02 10:24:21;;;;;;;;;;;;;;;;;;5071432;28;19939;-63
2021/07/02 10:26:50;;;;;;;;;;;;;;;;;;5067405;28;19947;-63
2021/07/02 10:29:17;;;;;;;;;;;;;;;;;;5067050;28;20337;-63
2021/07/02 10:31:44;;;;;;;;;;;;;;;;;;5069329;28;19924;-64
2021/07/02 10:34:11;;;;;;;;;;;;;;;;;;5069395;28;19928;-64
2021/07/02 10:36:38;;;;;;;;;;;;;;;;;;5068625;28;19996;-64
2021/07/02 10:39:05;;;;;;;;;;;;;;;;;;5070033;28;20276;-64
2021/07/02 10:41:32;;;;;;;;;;;;;;;;;;5065988;28;19946;-64
2021/07/02 10:43:59;;;;;;;;;;;;;;;;;;5067801;28;19925;-64
2021/07/02 10:46:26;;;;;;;;;;;;;;;;;;5064258;28;19929;-65
2021/07/02 10:48:53;;;;;;;;;;;;;;;;;;5066736;28;19933;-64
2021/07/02 10:51:20;;;;;;;;;;;;;;;;;;5071322;28;20284;-63
2021/07/02 10:53:47;;;;;;;;;;;;;;;;;;5070822;28;19924;-64
2021/07/02 10:56:14;;;;;;;;;;;;;;;;;;5070044;28;19931;-65
2021/07/02 10:58:41;;;;;;;;;;;;;;;;;;5066796;28;19931;-64
2021/07/02 11:01:08;;;;;;;;;;;;;;;;;;5072595;28;20328;-62
2021/07/02 11:03:35;;;;;;;;;;;;;;;;;;5063226;28;19931;-64
2021/07/02 11:06:02;;;;;;;;;;;;;;;;;;5063630;28;19935;-64
2021/07/02 11:08:29;;;;;;;;;;;;;;;;;;5067935;28;19931;-64
2021/07/02 11:10:56;;;;;;;;;;;;;;;;;;5066691;28;19925;-64
2021/07/02 11:13:23;;;;;;;;;;;;;;;;;;5067797;28;19925;-63
2021/07/02 11:15:50;;;;;;;;;;;;;;;;;;5065914;28;20331;-65
2021/07/02 11:18:18;;;;;;;;;;;;;;;;;;5065440;28;19924;-64
2021/07/02 11:20:45;;;;;;;;;;;;;;;;;;5067019;28;20373;-64
2021/07/02 11:23:12;;;;;;;;;;;;;;;;;;5065532;28;20011;-66
2021/07/02 11:25:44;;;;;;;;;;;;;;;;;;5068432;28;19936;-64
2021/07/02 11:28:13;;;;;;;;;;;;;;;;;;5069167;28;19962;-64
2021/07/02 11:30:40;;;;;;;;;;;;;;;;;;5065895;28;19971;-64
2021/07/02 11:33:07;;;;;;;;;;;;;;;;;;5065681;28;19964;-63
2021/07/02 11:35:34;;;;;;;;;;;;;;;;;;5066449;28;20027;-62
2021/07/02 11:38:01;;;;;;;;;;;;;;;;;;5069369;28;19925;-61
2021/07/02 11:40:28;;;;;;;;;;;;;;;;;;5067380;28;19930;-62
2021/07/02 11:42:55;;;;;;;;;;;;;;;;;;5064477;28;20430;-62
2021/07/02 11:45:22;;;;;;;;;;;;;;;;;;5067603;28;19931;-63
2021/07/02 11:47:49;;;;;;;;;;;;;;;;;;5067505;28;19924;-65
2021/07/02 11:50:16;;;;;;;;;;;;;;;;;;5065508;28;20039;-63
2021/07/02 11:52:43;;;;;;;;;;;;;;;;;;5066482;28;20316;-63
2021/07/02 11:55:10;;;;;;;;;;;;;;;;;;5070703;28;20280;-64
2021/07/02 11:57:37;;;;;;;;;;;;;;;;;;5066426;28;19952;-64
2021/07/02 12:00:04;;;;;;;;;;;;;;;;;;5063656;28;19924;-64
2021/07/02 12:02:31;;;;;;;;;;;;;;;;;;5066201;28;19929;-64
2021/07/02 12:04:58;;;;;;;;;;;;;;;;;;5067031;28;19925;-65
2021/07/02 12:07:25;;;;;;;;;;;;;;;;;;5065408;28;20381;-65
2021/07/02 12:09:52;;;;;;;;;;;;;;;;;;5065444;28;19930;-64
2021/07/02 12:12:19;;;;;;;;;;;;;;;;;;5064570;28;19925;-64
2021/07/02 12:14:46;;;;;;;;;;;;;;;;;;5062448;28;19925;-64
2021/07/02 12:17:13;;;;;;;;;;;;;;;;;;5065927;28;19947;-64
2021/07/02 12:19:41;;;;;;;;;;;;;;;;;;5063411;28;19928;-64
2021/07/02 12:22:10;;;;;;;;;;;;;;;;;;5067256;28;19930;-64
2021/07/02 12:24:37;;;;;;;;;;;;;;;;;;5067979;28;20046;-64
2021/07/02 12:27:04;;;;;;;;;;;;;;;;;;5065986;28;20109;-64
2021/07/02 12:29:31;;;;;;;;;;;;;;;;;;5064344;28;19925;-64
2021/07/02 12:31:58;;;;;;;;;;;;;;;;;;5065145;28;19931;-64
2021/07/02 12:34:25;;;;;;;;;;;;;;;;;;5064086;28;20307;-65
2021/07/02 12:36:52;;;;;;;;;;;;;;;;;;5065472;28;19933;-64
2021/07/02 12:39:19;;;;;;;;;;;;;;;;;;5064841;28;19928;-64
2021/07/02 12:41:46;;;;;;;;;;;;;;;;;;5064652;28;19929;-63
2021/07/02 12:44:13;;;;;;;;;;;;;;;;;;5064250;28;20464;-64
2021/07/02 12:46:40;;;;;;;;;;;;;;;;;;5061625;28;20392;-64
2021/07/02 12:49:07;;;;;;;;;;;;;;;;;;5066340;28;19924;-61
2021/07/02 12:51:35;;;;;;;;;;;;;;;;;;5062939;28;19929;-62
2021/07/02 12:56:47;;;;;;;;;;;;;;;;;;5061080;28;19939;-64
2021/07/02 12:59:14;;;;;;;;;;;;;;;;;;5064218;28;19924;-64
2021/07/02 13:01:41;;;;;;;;;;;;;;;;;;5070643;28;19948;-64
2021/07/02 13:04:08;;;;;;;;;;;;;;;;;;5061261;28;19924;-64
2021/07/02 13:06:35;;;;;;;;;;;;;;;;;;5067474;28;19924;-64
2021/07/02 13:09:02;;;;;;;;;;;;;;;;;;5069029;28;19931;-64
2021/07/02 13:11:29;;;;;;;;;;;;;;;;;;5061419;28;19932;-64
2021/07/02 13:13:56;;;;;;;;;;;;;;;;;;5062116;28;19928;-64
2021/07/02 13:16:23;;;;;;;;;;;;;;;;;;5066787;28;20019;-64
2021/07/02 13:18:50;;;;;;;;;;;;;;;;;;5061706;28;19929;-64
2021/07/02 13:21:17;;;;;;;;;;;;;;;;;;5063803;28;19924;-64
2021/07/02 13:23:44;;;;;;;;;;;;;;;;;;5067106;28;19931;-64
2021/07/02 13:26:11;;;;;;;;;;;;;;;;;;5065243;28;20668;-60
2021/07/02 13:28:38;;;;;;;;;;;;;;;;;;5064652;28;19990;-62
2021/07/02 13:31:05;;;;;;;;;;;;;;;;;;5062858;28;19924;-61
2021/07/02 13:33:32;;;;;;;;;;;;;;;;;;5062474;28;19958;-61
2021/07/02 13:35:59;;;;;;;;;;;;;;;;;;5067694;28;19925;-62
2021/07/02 13:38:26;;;;;;;;;;;;;;;;;;5063769;28;19931;-62
2021/07/02 13:40:54;;;;;;;;;;;;;;;;;;5067042;28;19925;-62
2021/07/02 13:43:21;;;;;;;;;;;;;;;;;;5063853;28;19925;-62
2021/07/02 13:45:48;;;;;;;;;;;;;;;;;;5062631;28;19935;-62
2021/07/02 13:48:15;;;;;;;;;;;;;;;;;;5063361;28;20403;-62
2021/07/02 13:50:42;;;;;;;;;;;;;;;;;;5067703;28;19924;-63
2021/07/02 13:53:09;;;;;;;;;;;;;;;;;;5068437;28;20096;-62
2021/07/02 13:55:36;;;;;;;;;;;;;;;;;;5066660;28;19929;-64
2021/07/02 13:58:03;;;;;;;;;;;;;;;;;;5066890;28;19967;-63
2021/07/02 14:00:30;;;;;;;;;;;;;;;;;;5064850;28;19925;-63
2021/07/02 14:02:56;;;;;;;;;;;;;;;;;;5066924;28;20019;-63
2021/07/02 14:05:23;;;;;;;;;;;;;;;;;;5065058;28;19925;-63
2021/07/02 14:07:50;;;;;;;;;;;;;;;;;;5064827;28;19929;-64
2021/07/02 14:10:17;;;;;;;;;;;;;;;;;;5068900;28;20307;-64
2021/07/02 14:12:44;;;;;;;;;;;;;;;;;;5067944;28;19931;-64
2021/07/02 14:15:11;;;;;;;;;;;;;;;;;;5063992;28;19925;-67
2021/07/02 14:17:38;;;;;;;;;;;;;;;;;;5061572;28;20404;-63
2021/07/02 14:20:05;;;;;;;;;;;;;;;;;;5064525;28;19935;-64
2021/07/02 14:22:32;;;;;;;;;;;;;;;;;;5065575;28;20023;-65
2021/07/02 14:24:59;;;;;;;;;;;;;;;;;;5064561;28;19925;-65
2021/07/02 14:27:26;;;;;;;;;;;;;;;;;;5060484;28;20278;-65
2021/07/02 14:29:53;;;;;;;;;;;;;;;;;;5061219;28;19932;-64
2021/07/02 14:32:20;;;;;;;;;;;;;;;;;;5073133;28;20031;-65
2021/07/02 14:34:47;;;;;;;;;;;;;;;;;;5069108;28;19924;-64
2021/07/02 14:37:14;;;;;;;;;;;;;;;;;;5068086;28;19931;-66
2021/07/02 14:39:41;;;;;;;;;;;;;;;;;;5068016;28;20356;-65
2021/07/02 14:42:08;;;;;;;;;;;;;;;;;;5066741;28;19946;-64
2021/07/02 14:44:35;;;;;;;;;;;;;;;;;;5068971;28;19931;-64
2021/07/02 14:47:02;;;;;;;;;;;;;;;;;;5067823;28;19976;-66
2021/07/02 14:49:29;;;;;;;;;;;;;;;;;;5068499;28;19925;-64
2021/07/02 14:51:57;;;;;;;;;;;;;;;;;;5069491;28;20019;-65
2021/07/02 14:54:24;;;;;;;;;;;;;;;;;;5069556;28;20335;-63
2021/07/02 14:56:51;;;;;;;;;;;;;;;;;;5069847;28;20015;-65
2021/07/02 14:59:18;;;;;;;;;;;;;;;;;;5061650;28;20356;-65
2021/07/02 15:01:45;;;;;;;;;;;;;;;;;;5063320;28;19932;-65
2021/07/02 15:04:11;;;;;;;;;;;;;;;;;;5071431;28;19925;-63
2021/07/02 15:06:38;;;;;;;;;;;;;;;;;;5071671;28;20389;-64
2021/07/02 15:09:05;;;;;;;;;;;;;;;;;;5069358;28;19931;-68
2021/07/02 15:11:32;;;;;;;;;;;;;;;;;;5069866;28;19930;-63
2021/07/02 15:13:59;;;;;;;;;;;;;;;;;;5067405;28;19924;-63
2021/07/02 15:16:26;;;;;;;;;;;;;;;;;;5066661;28;20316;-63
2021/07/02 15:18:53;;;;;;;;;;;;;;;;;;5067398;28;19925;-63
2021/07/02 15:21:20;;;;;;;;;;;;;;;;;;5063695;28;19936;-64
2021/07/02 15:23:47;;;;;;;;;;;;;;;;;;5067722;28;19929;-63
2021/07/02 15:26:14;;;;;;;;;;;;;;;;;;5069095;28;19924;-62
2021/07/02 15:28:41;;;;;;;;;;;;;;;;;;5061718;28;20376;-63
2021/07/02 15:31:08;;;;;;;;;;;;;;;;;;5065427;28;19930;-63
2021/07/02 15:33:36;;;;;;;;;;;;;;;;;;5061196;28;19955;-63
2021/07/02 15:36:06;;;;;;;;;;;;;;;;;;5065619;28;19940;-63
2021/07/02 15:38:32;;;;;;;;;;;;;;;;;;5060446;28;19932;-63
2021/07/02 15:40:59;;;;;;;;;;;;;;;;;;5065827;28;19936;-64
2021/07/02 15:43:26;;;;;;;;;;;;;;;;;;5068777;28;20348;-63
2021/07/02 15:45:53;;;;;;;;;;;;;;;;;;5067118;28;19932;-64
2021/07/02 15:48:20;;;;;;;;;;;;;;;;;;5070094;28;19931;-63
2021/07/02 15:50:47;;;;;;;;;;;;;;;;;;5066487;28;19924;-64
2021/07/02 15:53:14;;;;;;;;;;;;;;;;;;5066075;28;19947;-64
2021/07/02 15:55:41;;;;;;;;;;;;;;;;;;5065429;28;19932;-64
2021/07/02 15:58:08;;;;;;;;;;;;;;;;;;5067202;28;20376;-63
2021/07/02 16:00:38;;;;;;;;;;;;;;;;;;5063705;28;19928;-63
2021/07/02 16:03:05;;;;;;;;;;;;;;;;;;5067162;28;19939;-63
2021/07/02 16:05:32;;;;;;;;;;;;;;;;;;5065610;28;19931;-64
2021/07/02 16:08:00;;;;;;;;;;;;;;;;;;5064302;28;19928;-64
2021/07/02 16:10:26;;;;;;;;;;;;;;;;;;5062365;28;19970;-64
2021/07/02 16:12:53;;;;;;;;;;;;;;;;;;5064880;28;20393;-65
2021/07/02 16:15:20;;;;;;;;;;;;;;;;;;5064135;28;20049;-65
2021/07/02 16:17:47;;;;;;;;;;;;;;;;;;5063686;28;20362;-65
2021/07/02 16:20:15;;;;;;;;;;;;;;;;;;5063388;28;19934;-65
2021/07/02 16:22:43;;;;;;;;;;;;;;;;;;5069210;28;20014;-65
2021/07/02 16:25:10;;;;;;;;;;;;;;;;;;5068484;28;19978;-65
2021/07/02 16:27:37;;;;;;;;;;;;;;;;;;5061473;28;19925;-65
2021/07/02 16:30:04;;;;;;;;;;;;;;;;;;5066299;28;19925;-65
2021/07/02 16:32:30;;;;;;;;;;;;;;;;;;5065514;28;19928;-65
2021/07/02 16:34:57;;;;;;;;;;;;;;;;;;5066885;28;19932;-66
2021/07/02 16:37:24;;;;;;;;;;;;;;;;;;5063310;28;19924;-65
2021/07/02 16:39:51;;;;;;;;;;;;;;;;;;5064434;28;20297;-65
2021/07/02 16:42:18;;;;;;;;;;;;;;;;;;5062883;28;19925;-65
2021/07/02 16:44:45;;;;;;;;;;;;;;;;;;5058617;28;19924;-64
2021/07/02 16:47:12;;;;;;;;;;;;;;;;;;5065022;28;20573;-65
2021/07/02 16:49:39;;;;;;;;;;;;;;;;;;5061126;28;20400;-65